Tiempo atmosférico en la estación meteorológica de Torrelavega, Sierrapando, Cantabria (100 m.)



Fecha
DESCASC
Temp. máxima en grados centígrados (hora)
DESCASC
Temp. mínima en grados centígrados (hora)
DESCASC
Temp. media en grados centígrados
DESCASC
Racha de viento máxima en m/sg (hora)
DESCASC
Velocidad máxima media en intervalos de 10 minutos(hora)
DESCASC
Precipitaciones diarias en mm
DESCASC
Precipitaciones de 00:00 a 06:00 en mm
DESCASC
Precipitaciones de 06:00 a 12:00 en mm
DESCASC
Precipitaciones de 12:00 a 18:00 en mm
DESCASC
Precipitaciones de 18:00 a 24:00 en mm
DESCASC
15-08-2019 21 (13:10) 16.9 (06:00) 18.9 6.67 (01:50) 4.44 (03:00) 3.8 3.4 0.4 0 0
14-08-2019 -- (--) -- (--) -- -- (--) -- (--) -- -- -- 0 1.6
13-08-2019 23 (13:50) 13 (00:00) 18 -- (--) -- (--) 0 0 0 0 0
12-08-2019 21 (15:30) 12.7 (00:00) 16.8 13.06 (13:10) 8.89 (13:10) 0 0 0 0 0
11-08-2019 18.6 (00:00) 15 (00:00) 16.8 7.78 (20:50) 4.72 (20:50) 12.4 2.2 3 7 0.2
10-08-2019 22.8 (11:50) 18.6 (00:00) 20.7 6.94 (10:50) 5 (10:50) 1 1 0 0 0
09-08-2019 30.6 (00:00) 20.2 (00:00) 25.4 15.83 (00:40) 10.83 (04:40) 0 0 0 0 0
08-08-2019 35.1 (18:50) 18.9 (00:00) 27 13.61 (15:50) 8.89 (15:50) 0 0 0 0 0
07-08-2019 28.9 (15:40) 18.5 (00:00) 23.7 8.33 (14:40) 5.83 (16:20) 0 0 0 0 0
06-08-2019 25.6 (14:50) 16.5 (00:00) 21.1 6.39 (16:00) 4.17 (16:00) 0 0 0 0 0
05-08-2019 25.4 (16:10) 15.8 (00:00) 20.6 6.94 (14:10) 5 (13:30) 0 0 0 0 0
04-08-2019 24 (11:30) 18.4 (00:00) 21.2 6.39 (12:30) 4.44 (12:40) 0 0 0 0 0
03-08-2019 25 (16:20) 16 (00:00) 20.5 6.67 (19:10) 4.72 (17:00) 0 0 0 0 0
02-08-2019 25 (13:50) 14.8 (00:00) 19.9 8.61 (16:50) 6.67 (16:40) 0 0 0 0 0
01-08-2019 21.4 (17:50) 15.2 (00:00) 18.3 5.28 (18:00) 3.61 (19:00) 0.8 0 0.8 0 0
31-07-2019 22.9 (13:40) 13.7 (00:00) 18.3 9.72 (17:00) 6.67 (16:00) 0 0 0 0 0
30-07-2019 21.3 (15:10) 15.7 (00:00) 18.5 10.83 (11:40) 7.22 (14:40) 0 0 0 0 0
29-07-2019 22.4 (10:10) 15.4 (00:00) 18.9 9.72 (22:30) 5.56 (12:50) 0 0 0 0 0
28-07-2019 23.2 (17:20) 14.7 (00:00) 19 7.22 (18:10) 5 (18:10) 7.2 7.2 0 0 0
27-07-2019 18.1 (16:40) 14.2 (00:00) 16.2 8.89 (18:20) 5.83 (18:20) 20.4 7.8 1.4 8.2 3
26-07-2019 19.4 (00:10) 16.2 (00:00) 17.8 8.61 (14:40) 5.56 (14:40) 20 9.4 8.8 1.8 0
25-07-2019 26.6 (12:50) 19.3 (00:00) 22.9 8.33 (22:40) 5.56 (22:20) 1.4 0 0 0 1.4
24-07-2019 28.2 (15:20) 20.4 (00:00) 24.3 9.17 (01:10) 5.56 (00:50) 0 0 0 0 0
23-07-2019 31.1 (10:50) 19 (00:00) 25.1 10.83 (19:20) 6.67 (19:10) 0.2 0 0 0 0.2
22-07-2019 27.1 (12:50) 19.9 (00:00) 23.5 7.5 (13:00) 5.83 (13:00) 1 0 0 0 1
21-07-2019 24.7 (14:20) 18.6 (00:00) 21.7 8.89 (16:30) 6.39 (17:20) 0 0 0 0 0
20-07-2019 24.5 (14:00) 17.5 (00:00) 21 7.5 (15:50) 5 (16:10) 0 0 0 0 0
19-07-2019 26.2 (13:50) 14.3 (00:00) 20.3 7.5 (13:40) 4.72 (14:00) 0 0 0 0 0

Gráficas

Temp. máximas Temp. mínimas Temp. medias Precipitaciones Rachas de viento máximas Velocidades máximas media en intervalos de 10 minutos

Datos horarios

Fecha y hora oficial Temperatura (ºC) Velocidad del viento (km/h) Dirección del viento Racha (km/h) Dirección de racha Precipitación (mm) Presión (hPa) Tendencia (hPa) Humedad (%)
2019-08-17 23:00:00 21.2 2 Nordeste 9 Nordeste 0 -- -- 82
2019-08-17 22:00:00 21.7 7 Este 21 Este 0 -- -- 79
2019-08-17 21:00:00 22.8 12 Este 19 Este 0 -- -- 75
2019-08-17 20:00:00 24.1 13 Nordeste 20 Nordeste 0 -- -- 71
2019-08-17 19:00:00 24.9 15 Nordeste 21 Nordeste 0 -- -- 68
2019-08-17 18:00:00 25.6 15 Nordeste 26 Nordeste 0 -- -- 66
2019-08-17 17:00:00 26.3 13 Nordeste 27 Nordeste 0 -- -- 63
2019-08-17 16:00:00 26.6 14 Norte 24 Nordeste 0 -- -- 63
2019-08-17 15:00:00 27.2 14 Norte 22 Norte 0 -- -- 59
2019-08-17 14:00:00 26.9 14 Nordeste 22 Nordeste 0 -- -- 58
2019-08-17 13:00:00 26.5 14 Norte 21 Norte 0 -- -- 60
2019-08-17 12:00:00 25.6 8 Norte 14 Norte 0 -- -- 66
2019-08-17 11:00:00 24.1 2 Oeste 9 Sur 0 -- -- 63
2019-08-17 10:00:00 20.8 7 Sur 15 Sudeste 0 -- -- 72
2019-08-17 09:00:00 17.5 10 Sur 19 Sudeste 0 -- -- 83
2019-08-17 08:00:00 15.9 8 Sur 11 Sudoeste 0 -- -- 91
2019-08-17 07:00:00 15.4 8 Sudoeste 16 Sudeste 0 -- -- 92
2019-08-17 06:00:00 15.3 8 Sudeste 23 Sudeste 0 -- -- 92
2019-08-17 05:00:00 15.9 12 Sudeste 21 Sudeste 0 -- -- 91
2019-08-17 04:00:00 16.1 14 Sudeste 21 Sudeste 0 -- -- 93
2019-08-17 03:00:00 16.5 9 Sur 15 Sudeste 0 -- -- 94
2019-08-17 02:00:00 17.2 10 Sudoeste 15 Sudoeste 0 -- -- 93
2019-08-17 01:00:00 17.7 8 Sudoeste 10 Sudoeste 0 -- -- 90
2019-08-17 00:00:00 18.2 7 Sur 11 Sudoeste 0 -- -- 89
2019-08-16 23:00:00 18.6 7 Sudoeste 13 Oeste 0 -- -- 87
2019-08-16 22:00:00 19 8 Oeste 19 Noroeste 0 -- -- 87
2019-08-16 21:00:00 20.1 11 Norte 21 Noroeste 0 -- -- 80
2019-08-16 20:00:00 21.6 9 Norte 18 Noroeste 0 -- -- 71
2019-08-16 19:00:00 23.5 12 Noroeste 23 Noroeste 0 -- -- 69
2019-08-16 18:00:00 24.6 14 Noroeste 23 Noroeste 0 -- -- 57
2019-08-16 17:00:00 25.1 12 Noroeste 25 Noroeste 0 -- -- 59
2019-08-16 16:00:00 24.8 12 Norte 21 Norte 0 -- -- 58
2019-08-16 15:00:00 24.8 12 Nordeste 18 Nordeste 0 -- -- 65
2019-08-16 14:00:00 23.8 10 Norte 20 Norte 0 -- -- 65
2019-08-16 13:00:00 23.8 12 Norte 18 Nordeste 0 -- -- 70
2019-08-16 12:00:00 22.7 4 Nordeste 10 Oeste 0 -- -- 68
2019-08-16 11:00:00 21.2 3 Oeste 9 Oeste 0 -- -- 75
2019-08-16 10:00:00 18.9 5 Sudoeste 10 Sudoeste 0 -- -- 79
2019-08-16 09:00:00 16.2 6 Sur 15 Sudeste 0 -- -- 88
2019-08-16 08:00:00 14.1 9 Sur 20 Sudeste 0 -- -- 96
2019-08-16 07:00:00 13.8 10 Sudeste 15 Sur 0 -- -- 96
2019-08-16 06:00:00 14 8 Sur 14 Sudeste 0 -- -- 96
2019-08-16 05:00:00 14.4 10 Sudeste 14 Sudeste 0 -- -- 95
2019-08-16 04:00:00 14.8 7 Sur 15 Sur 0 -- -- 93
2019-08-16 03:00:00 15.4 9 Sur 15 Sudeste 0 -- -- 92
2019-08-16 02:00:00 16.5 8 Sur 13 Sudeste 0 -- -- 87
2019-08-16 01:00:00 17.4 12 Este 15 Este 0 -- -- 82
2019-08-16 00:00:00 18.1 10 Sudeste 18 Sudeste 0 -- -- 81
2019-08-15 23:00:00 18.4 4 Sudoeste 15 Este 0 -- -- 79
2019-08-15 22:00:00 18.3 12 Este 15 Este 0 -- -- 80
2019-08-15 21:00:00 18.9 6 Nordeste 10 Nordeste 0 -- -- 80
2019-08-15 20:00:00 20 8 Este 11 Norte 0 -- -- 76
2019-08-15 19:00:00 20.4 7 Nordeste 11 Nordeste 0 -- -- 76
2019-08-15 18:00:00 20.6 4 Norte 18 Norte 0 -- -- 72
2019-08-15 17:00:00 20.8 9 Norte 18 Norte 0 -- -- 73
2019-08-15 16:00:00 20.7 12 Norte 19 Norte 0 -- -- 74
2019-08-15 15:00:00 20.5 12 Norte 19 Nordeste 0 -- -- 74
2019-08-15 14:00:00 20.7 14 Nordeste 20 Nordeste 0 -- -- 76
2019-08-15 13:00:00 20.9 11 Norte 18 Norte 0 -- -- 81
2019-08-15 12:00:00 20.8 3 Noroeste 12 Sudoeste 0 -- -- 83
2019-08-15 11:00:00 19.2 6 Sudoeste 12 Sudoeste 0 -- -- 94
2019-08-15 10:00:00 17.6 8 Sudoeste 12 Sudoeste 0 -- -- 97
2019-08-15 09:00:00 17.2 4 Sudoeste 14 Oeste 0.2 -- -- 98
2019-08-15 08:00:00 17 6 Oeste 12 Oeste 0 -- -- 98
2019-08-15 07:00:00 17 7 Noroeste 15 Noroeste 0.2 -- -- 98
2019-08-15 06:00:00 16.9 10 Noroeste 17 Noroeste 0.2 -- -- 98
2019-08-15 05:00:00 17.2 10 Noroeste 22 Noroeste 0 -- -- 98
2019-08-15 04:00:00 17.7 13 Noroeste 22 Noroeste 0.2 -- -- 98
2019-08-15 03:00:00 18.2 16 Noroeste 23 Noroeste 0.2 -- -- 97
2019-08-15 02:00:00 19.1 12 Noroeste 24 Noroeste 1 -- -- 97
2019-08-15 01:00:00 19.4 12 Oeste 21 Noroeste 1.8 -- -- 96
2019-08-15 00:00:00 19.5 4 Sudoeste 13 Sudoeste 1.2 -- -- 95
2019-08-14 23:00:00 19.7 6 Oeste 22 Oeste 0.4 -- -- 91
2019-08-14 22:00:00 20.8 13 Oeste 22 Oeste 0 -- -- 84
2019-08-14 21:00:00 21 11 Oeste 28 Oeste 0 -- -- 81
2019-08-14 20:00:00 21.4 21 Noroeste 34 Oeste 0 -- -- 77
2019-08-14 19:00:00 23 18 Noroeste 28 Noroeste 0 -- -- 66
2019-08-14 18:00:00 23.7 15 Noroeste 24 Oeste 0 -- -- 66
2019-08-14 17:00:00 24.4 12 Noroeste 22 Noroeste 0 -- -- 56
2019-08-14 16:00:00 23.8 12 Noroeste 21 Noroeste 0 -- -- 52
2019-08-14 15:00:00 24.5 14 Noroeste 25 Noroeste 0 -- -- 49
2019-08-14 14:00:00 25.4 17 Noroeste 28 Noroeste 0 -- -- 44
2019-08-14 13:00:00 24.5 20 Noroeste 29 Noroeste 0 -- -- 46
2019-08-14 12:00:00 24.4 -- -- -- -- -- -- -- --
2019-08-14 11:00:00 22.7 6 Sudoeste 12 Sudoeste 0 -- -- 60
2019-08-14 10:00:00 19.9 6 Sur 16 Sudoeste 0 -- -- 72
2019-08-14 09:00:00 -- -- -- -- -- -- -- -- --
2019-08-14 08:00:00 -- -- -- -- -- -- -- -- --
2019-08-14 07:00:00 -- -- -- -- -- -- -- -- --
2019-08-14 06:00:00 15 -- -- -- -- -- -- -- --
2019-08-14 05:00:00 14.9 5 Sur 12 Sur 0 -- -- 87
2019-08-14 04:00:00 14.7 8 Sur 17 Sudeste 0 -- -- 89
2019-08-14 03:00:00 14.7 11 Sur 20 Sudeste 0 -- -- 88
2019-08-14 02:00:00 15.1 -- -- -- -- 0 -- -- --
2019-08-14 01:00:00 15.4 5 Sur 10 Sur 0 -- -- 85
2019-08-14 00:00:00 16.3 6 Sur 8 Sudeste 0 -- -- 80
2019-08-13 23:00:00 17 8 Sudeste 14 Sudeste 0 -- -- 78
2019-08-13 22:00:00 17.8 4 Sudeste 10 Nordeste 0 -- -- 74
2019-08-13 21:00:00 18.7 9 Nordeste 22 Este 0 -- -- 70
2019-08-13 20:00:00 20.2 16 Nordeste 25 Este 0 -- -- 65
2019-08-13 19:00:00 21.4 16 Este 24 Este 0 -- -- 61
2019-08-13 18:00:00 21.7 17 Este 32 Nordeste 0 -- -- 57
2019-08-13 17:00:00 21.9 20 Nordeste 31 Nordeste 0 -- -- 60
2019-08-13 16:00:00 22.2 22 Nordeste 31 Nordeste 0 -- -- 62
2019-08-13 15:00:00 22.5 21 Nordeste 33 Nordeste 0 -- -- 61
2019-08-13 14:00:00 22.5 14 Este 22 Nordeste 0 -- -- 56
2019-08-13 13:00:00 22.4 14 Este 22 Este 0 -- -- 57
2019-08-13 12:00:00 21.2 13 Este 19 Sudeste 0 -- -- 61
2019-08-13 11:00:00 19.8 7 Sudeste 10 Sur 0 -- -- 68
2019-08-13 10:00:00 17.6 -- -- -- -- -- -- -- --
2019-08-13 09:00:00 14.9 6 Sur 11 Sudeste 0 -- -- 88
2019-08-13 08:00:00 13.3 6 Sur 19 Sudeste 0 -- -- 90
2019-08-13 07:00:00 13 9 Sur 13 Sudeste 0 -- -- 92
2019-08-13 06:00:00 13.2 -- -- -- -- 0 -- -- 92
2019-08-13 05:00:00 13.7 6 Sur 11 Sur 0 -- -- 92
2019-08-13 04:00:00 14.2 6 Sur 9 Sudeste 0 -- -- 91
2019-08-13 03:00:00 14.6 6 Sur 12 Sudeste 0 -- -- 89
2019-08-13 02:00:00 15.3 7 Sudeste 10 Sudoeste 0 -- -- 86
2019-08-13 01:00:00 15.9 8 Sudoeste 12 Sudoeste 0 -- -- 84
2019-08-13 00:00:00 16.5 8 Sudoeste 11 Sudoeste 0 -- -- 82
2019-08-12 23:00:00 16.8 7 Sudoeste 8 Sudoeste 0 -- -- 77
2019-08-12 22:00:00 17.1 3 Norte 8 Norte 0 -- -- 72
2019-08-12 21:00:00 17.4 5 Norte 15 Noroeste 0 -- -- 73
2019-08-12 20:00:00 18.5 10 Norte 25 Noroeste 0 -- -- 71
2019-08-12 19:00:00 19.6 16 Noroeste 27 Noroeste 0 -- -- 68
2019-08-12 18:00:00 19.8 18 Noroeste 32 Noroeste 0 -- -- 67
2019-08-12 17:00:00 19.5 18 Noroeste 39 Noroeste 0 -- -- 68
2019-08-12 16:00:00 20.1 25 Noroeste 39 Oeste 0 -- -- 68
2019-08-12 15:00:00 20.6 21 Noroeste 36 Noroeste 0 -- -- 65
2019-08-12 14:00:00 19 17 Oeste 47 Oeste 0 -- -- 73
2019-08-12 13:00:00 18.4 31 Noroeste 44 Noroeste 0 -- -- 70
2019-08-12 12:00:00 19.5 25 Noroeste 38 Noroeste 0 -- -- 65
2019-08-12 11:00:00 17.9 15 Oeste 32 Oeste 0 -- -- 72
2019-08-12 10:00:00 18 9 Sudoeste 19 Sudoeste 0 -- -- 70
2019-08-12 09:00:00 15.9 10 Sudoeste 17 Sudoeste 0 -- -- 80
2019-08-12 08:00:00 13.1 13 Sudoeste 19 Sudoeste 0 -- -- 91
2019-08-12 07:00:00 13 14 Sudoeste 18 Sudoeste 0 -- -- 91
2019-08-12 06:00:00 13 13 Sudoeste 19 Sudoeste 0 -- -- 92
2019-08-12 05:00:00 13.3 15 Sudoeste 20 Sudoeste 0 -- -- 92
2019-08-12 04:00:00 13.3 12 Sudoeste 18 Sudoeste 0 -- -- 93
2019-08-12 03:00:00 13.6 10 Sudoeste 14 Sudoeste 0 -- -- 93
2019-08-12 02:00:00 14.3 9 Sur 12 Sur 0 -- -- 91
2019-08-12 01:00:00 14.6 8 Sur 14 Sudoeste 0 -- -- 91
2019-08-12 00:00:00 15 10 Sudoeste 17 Sudoeste 0 -- -- 92
2019-08-11 23:00:00 15.1 13 Sudoeste 18 Sudoeste 0 -- -- 92
2019-08-11 22:00:00 15.2 11 Sudoeste 21 Oeste 0 -- -- 92
2019-08-11 21:00:00 15.8 16 Oeste 28 Oeste 0.2 -- -- 90
2019-08-11 20:00:00 16.9 9 Oeste 13 Oeste 0 -- -- 88
2019-08-11 19:00:00 17.4 8 Sudoeste 12 Sudoeste 0 -- -- 85
2019-08-11 18:00:00 17.7 7 Sudoeste 12 Sudoeste 0 -- -- 88
2019-08-11 17:00:00 17.1 6 Oeste 10 Oeste 0.8 -- -- 94
2019-08-11 16:00:00 16.8 9 Norte 15 Norte 1.6 -- -- 94
2019-08-11 15:00:00 17.1 6 Norte 10 Oeste 3.6 -- -- 93
2019-08-11 14:00:00 17.9 3 Sudoeste 9 Oeste 0.2 -- -- 90
2019-08-11 13:00:00 17.3 9 Oeste 15 Sudoeste 0.8 -- -- 90
2019-08-11 12:00:00 17.7 8 Oeste 13 Noroeste 1.2 -- -- 87
2019-08-11 11:00:00 17.3 9 Sudoeste 13 Sudoeste 0.2 -- -- 92
2019-08-11 10:00:00 16.8 8 Sudoeste 13 Sudoeste 0.8 -- -- 91
2019-08-11 09:00:00 17 9 Sudoeste 13 Sudoeste 0 -- -- 92
2019-08-11 08:00:00 15.7 7 Oeste 19 Sudeste 0 -- -- 95
2019-08-11 07:00:00 15.9 16 Sudeste 22 Sudeste 0.8 -- -- 94
2019-08-11 06:00:00 16.3 9 Oeste 18 Oeste 2.2 -- -- 92
2019-08-11 05:00:00 17.3 6 Sudoeste 14 Sudoeste 0 -- -- 90
2019-08-11 04:00:00 17.3 9 Sudoeste 11 Sudoeste 0 -- -- 88
2019-08-11 03:00:00 17.5 8 Sudoeste 11 Sudoeste 0 -- -- 89
2019-08-11 02:00:00 17.5 7 Sudoeste 12 Sudoeste 0 -- -- 89
2019-08-11 01:00:00 18 7 Oeste 10 Oeste 0 -- -- 87
2019-08-11 00:00:00 18.6 4 Oeste 8 Oeste 0 -- -- 85
2019-08-10 23:00:00 19 4 Sudoeste 5 Sudoeste 0 -- -- 82
2019-08-10 22:00:00 19.3 0 Calma 4 Norte 0 -- -- 80
2019-08-10 21:00:00 19.5 3 Este 8 Nordeste 0 -- -- 79
2019-08-10 20:00:00 20.1 8 Nordeste 11 Nordeste 0 -- -- 76
2019-08-10 19:00:00 20.2 5 Nordeste 12 Nordeste 0 -- -- 75
2019-08-10 18:00:00 20.8 10 Nordeste 15 Nordeste 0 -- -- 72
2019-08-10 17:00:00 21 11 Nordeste 19 Nordeste 0 -- -- 70
2019-08-10 16:00:00 21 12 Nordeste 20 Nordeste 0 -- -- 70
2019-08-10 15:00:00 21.2 10 Norte 21 Norte 0 -- -- 68
2019-08-10 14:00:00 21.7 14 Norte 23 Norte 0 -- -- 67
2019-08-10 13:00:00 21 12 Nordeste 21 Norte 0 -- -- 70
2019-08-10 12:00:00 22.2 10 Norte 19 Nordeste 0 -- -- 65
2019-08-10 11:00:00 20.7 12 Nordeste 25 Nordeste 0 -- -- 75
2019-08-10 10:00:00 20.5 9 Sudeste 13 Sudeste 0 -- -- 87
2019-08-10 09:00:00 19.1 8 Sudeste 13 Sudeste 0 -- -- 92
2019-08-10 08:00:00 19 4 Sur 7 Sur 0 -- -- 90
2019-08-10 07:00:00 18.9 3 Este 14 Norte 0 -- -- 92
2019-08-10 06:00:00 19 6 Este 11 Sudeste 0.2 -- -- 92
2019-08-10 05:00:00 19.1 6 Sudeste 12 Sudeste 0.2 -- -- 93
2019-08-10 04:00:00 19.5 4 Este 7 Noroeste 0 -- -- 91
2019-08-10 03:00:00 19.5 5 Norte 13 Nordeste 0.6 -- -- 90
2019-08-10 02:00:00 20 8 Nordeste 15 Norte 0 -- -- 91
2019-08-10 01:00:00 20.1 4 Oeste 5 Sudoeste 0 -- -- 91
2019-08-10 00:00:00 20.2 6 Oeste 9 Sudeste 0 -- -- 90
2019-08-09 23:00:00 20.7 6 Sur 10 Sudeste 0 -- -- 88
2019-08-09 22:00:00 20.9 5 Este 10 Este -- -- -- 86
2019-08-09 21:00:00 21.5 4 Este 8 Sudeste 0 -- -- 84
2019-08-09 20:00:00 22.6 4 Sudeste 9 Este 0 -- -- 77
2019-08-09 19:00:00 22.8 6 Este 10 Este 0 -- -- 74
2019-08-09 18:00:00 22.7 6 Nordeste 18 Nordeste 0 -- -- 75
2019-08-09 17:00:00 22.8 14 Nordeste 19 Nordeste 0 -- -- 73
2019-08-09 16:00:00 22.7 10 Nordeste 19 Nordeste 0 -- -- 79
2019-08-09 15:00:00 22 10 Nordeste 21 Nordeste 0 -- -- 83
2019-08-09 14:00:00 22.1 16 Nordeste 29 Nordeste 0 -- -- 80
2019-08-09 13:00:00 22.2 18 Nordeste 31 Este 0 -- -- 81
2019-08-09 12:00:00 22.8 19 Este 28 Este 0 -- -- 83
2019-08-09 11:00:00 21.7 15 Nordeste 23 Nordeste 0 -- -- 87
2019-08-09 10:00:00 21.5 13 Nordeste 19 Nordeste 0 -- -- 89
2019-08-09 09:00:00 21.8 14 Nordeste 20 Nordeste 0 -- -- 90
2019-08-09 08:00:00 21.2 10 Este 21 Norte 0 -- -- 91
2019-08-09 07:00:00 21.3 12 Norte 34 Noroeste 0 -- -- 91
2019-08-09 06:00:00 24.1 27 Noroeste 45 Oeste 0 -- -- 79
2019-08-09 05:00:00 28.7 31 Sur 52 Sudoeste 0 -- -- 49
2019-08-09 04:00:00 29 29 Sudoeste 40 Sur 0 -- -- 48
2019-08-09 03:00:00 29.9 18 Sudoeste 40 Sudoeste 0 -- -- 45
2019-08-09 02:00:00 29.6 28 Sudoeste 41 Sur 0 -- -- 47
2019-08-09 01:00:00 29.9 22 Sudoeste 57 Sudoeste 0 -- -- 46
2019-08-09 00:00:00 30.6 18 Sudoeste 35 Sudoeste 0 -- -- 44
2019-08-08 23:00:00 30.9 22 Sudoeste 40 Sudoeste 0 -- -- 45
2019-08-08 22:00:00 31.9 27 Sudoeste 43 Sudoeste 0 -- -- 43
2019-08-08 21:00:00 32 15 Sudoeste 28 Sudoeste 0 -- -- 45
2019-08-08 20:00:00 33.6 16 Sudoeste 34 Sudoeste 0 -- -- 44
2019-08-08 19:00:00 35 17 Sur 28 Sur 0 -- -- 41
2019-08-08 18:00:00 33.9 17 Sur 39 Sur 0 -- -- 44
2019-08-08 17:00:00 33.5 21 Sur 40 Sudoeste 0 -- -- 45
2019-08-08 16:00:00 33 30 Sudoeste 49 Sudoeste 0 -- -- 46
2019-08-08 15:00:00 34 14 Sur 31 Sur 0 -- -- 43
2019-08-08 14:00:00 33 4 Oeste 17 Sudoeste -- -- -- 44
2019-08-08 13:00:00 32.5 13 Sur 27 Sudoeste -- -- -- 46
2019-08-08 12:00:00 31.2 14 Sur 26 Sur -- -- -- 49
2019-08-08 11:00:00 29.6 11 Sudoeste 17 Sudoeste 0 -- -- 53
2019-08-08 10:00:00 28.3 5 Sur 14 Sur 0 -- -- 57
2019-08-08 09:00:00 24.3 7 Sudeste 13 Sur 0 -- -- 72
2019-08-08 08:00:00 20.8 7 Sudoeste 12 Sudeste 0 -- -- 85
2019-08-08 07:00:00 19.2 9 Sudeste 14 Sudeste 0 -- -- 93
2019-08-08 06:00:00 19 8 Sudoeste 12 Sur 0 -- -- 94
2019-08-08 05:00:00 19 7 Sudoeste 12 Sur 0 -- -- 95
2019-08-08 04:00:00 19.6 9 Sudeste 13 Sudeste 0 -- -- 95
2019-08-08 03:00:00 20 8 Sudeste 13 Sudeste 0 -- -- 95
2019-08-08 02:00:00 20.3 10 Sudeste 13 Sudeste 0 -- -- 94
2019-08-08 01:00:00 20.6 5 Sudeste 7 Sudeste 0 -- -- 93
2019-08-08 00:00:00 21.1 3 Este 5 Oeste 0 -- -- 91
2019-08-07 23:00:00 21.3 4 Noroeste 7 Norte 0 -- -- 90
2019-08-07 22:00:00 21.8 5 Norte 8 Noroeste 0 -- -- 88
2019-08-07 21:00:00 22.8 5 Norte 14 Norte 0 -- -- 84
2019-08-07 20:00:00 23.9 9 Norte 14 Nordeste 0 -- -- 81
2019-08-07 19:00:00 26.1 9 Nordeste 18 Este 0 -- -- 73
2019-08-07 18:00:00 27.1 13 Este 22 Norte 0 -- -- 64
2019-08-07 17:00:00 27.1 14 Nordeste 28 Este 0 -- -- 61
2019-08-07 16:00:00 28 19 Este 25 Este 0 -- -- 64
2019-08-07 15:00:00 27.7 18 Nordeste 30 Nordeste 0 -- -- 61
2019-08-07 14:00:00 26.9 13 Norte 23 Nordeste 0 -- -- 70
2019-08-07 13:00:00 26.7 13 Este 19 Este 0 -- -- 63
2019-08-07 12:00:00 24.8 10 Nordeste 18 Norte 0 -- -- 73
2019-08-07 11:00:00 24.5 6 Nordeste 9 Este 0 -- -- 71
2019-08-07 10:00:00 23 3 Oeste 10 Sudoeste 0 -- -- 77
2019-08-07 09:00:00 20.9 6 Sudoeste 10 Sudoeste 0 -- -- 86
2019-08-07 08:00:00 19.2 5 Sur 8 Oeste 0 -- -- 91
2019-08-07 07:00:00 18.6 5 Oeste 7 Oeste 0 -- -- 92
2019-08-07 06:00:00 18.8 5 Oeste 8 Sudoeste 0 -- -- 91
2019-08-07 05:00:00 19.1 7 Sudoeste 9 Sudoeste 0 -- -- 90
2019-08-07 04:00:00 19.3 4 Sur 6 Sudoeste 0 -- -- 90
2019-08-07 03:00:00 19.7 5 Sudeste 17 Sudeste 0 -- -- 87
2019-08-07 02:00:00 19.5 12 Sur 19 Sudeste 0 -- -- 90
2019-08-07 01:00:00 19.7 13 Sudeste 18 Sudeste 0 -- -- 92
2019-08-07 00:00:00 19.7 6 Sudeste 10 Norte 0 -- -- 92
2019-08-06 23:00:00 20.2 7 Sur 15 Noroeste 0 -- -- 91
2019-08-06 22:00:00 20.7 8 Noroeste 15 Oeste 0 -- -- 88
2019-08-06 21:00:00 21 7 Oeste 22 Noroeste 0 -- -- 88
2019-08-06 20:00:00 21.5 13 Noroeste 21 Noroeste 0 -- -- 82
2019-08-06 19:00:00 22.2 8 Noroeste 18 Noroeste 0 -- -- 78
2019-08-06 18:00:00 22.7 12 Noroeste 19 Noroeste 0 -- -- 73
2019-08-06 17:00:00 23.5 12 Noroeste 21 Norte 0 -- -- 73
2019-08-06 16:00:00 24.6 15 Norte 23 Nordeste 0 -- -- 69
2019-08-06 15:00:00 24.9 13 Nordeste 22 Norte 0 -- -- 69
2019-08-06 14:00:00 25 11 Norte 18 Nordeste 0 -- -- 72
2019-08-06 13:00:00 24.2 8 Norte 14 Norte 0 -- -- 71
2019-08-06 12:00:00 23.1 4 Este 9 Noroeste 0 -- -- 72
2019-08-06 11:00:00 21.5 5 Noroeste 10 Noroeste 0 -- -- 78
2019-08-06 10:00:00 20.7 4 Sudoeste 9 Sudoeste 0 -- -- 80
2019-08-06 09:00:00 18 3 Sudoeste 12 Sur 0 -- -- 88
2019-08-06 08:00:00 16.7 10 Sur 18 Sudeste 0 -- -- 90
2019-08-06 07:00:00 16.5 12 Sudeste 17 Sudeste 0 -- -- 93
2019-08-06 06:00:00 16.7 5 Sudoeste 19 Sudeste 0 -- -- 93
2019-08-06 05:00:00 16.9 7 Sur 15 Sudeste 0 -- -- 93
2019-08-06 04:00:00 17.4 10 Sudeste 17 Sur 0 -- -- 93
2019-08-06 03:00:00 17.6 8 Sur 14 Sur 0 -- -- 93
2019-08-06 02:00:00 18 10 Sudeste 16 Sudeste 0 -- -- 91
2019-08-06 01:00:00 18.4 4 Sudoeste 9 Sudoeste 0 -- -- 89
2019-08-06 00:00:00 19 6 Sudoeste 8 Sudoeste 0 -- -- 86
2019-08-05 23:00:00 19.7 6 Sudoeste 7 Sudoeste 0 -- -- 87
2019-08-05 22:00:00 20 4 Norte 11 Nordeste 0 -- -- 87
2019-08-05 21:00:00 21.8 9 Norte 15 Norte 0 -- -- 76
2019-08-05 20:00:00 23.5 12 Nordeste 19 Norte 0 -- -- 69
2019-08-05 19:00:00 24.4 13 Norte 23 Nordeste 0 -- -- 64
2019-08-05 18:00:00 24.9 14 Norte 22 Norte 0 -- -- 63
2019-08-05 17:00:00 25.1 16 Nordeste 24 Nordeste 0 -- -- 62
2019-08-05 16:00:00 25.2 12 Nordeste 22 Nordeste 0 -- -- 64
2019-08-05 15:00:00 24.1 14 Nordeste 25 Norte 0 -- -- 68
2019-08-05 14:00:00 24.4 17 Nordeste 24 Nordeste 0 -- -- 70
2019-08-05 13:00:00 23.8 12 Nordeste 17 Nordeste 0 -- -- 72
2019-08-05 12:00:00 24 4 Este 11 Nordeste 0 -- -- 70
2019-08-05 11:00:00 23.7 4 Nordeste 9 Este 0 -- -- 74
2019-08-05 10:00:00 21.1 4 Sudoeste 9 Sur 0 -- -- 79
2019-08-05 09:00:00 18.6 6 Sur 12 Sur 0 -- -- 87
2019-08-05 08:00:00 16.4 7 Sur 16 Sudeste 0 -- -- 94
2019-08-05 07:00:00 15.9 9 Sur 14 Sur 0 -- -- 95
2019-08-05 06:00:00 16 5 Sur 16 Sudeste 0 -- -- 95
2019-08-05 05:00:00 16.3 12 Sur 18 Sudeste 0 -- -- 95
2019-08-05 04:00:00 16.4 9 Sur 16 Sudeste 0 -- -- 95
2019-08-05 03:00:00 16.7 10 Sudeste 14 Sudeste 0 -- -- 95
2019-08-05 02:00:00 17.3 8 Sudeste 11 Sur 0 -- -- 93
2019-08-05 01:00:00 17.9 6 Sudeste 12 Sudeste 0 -- -- 92
2019-08-05 00:00:00 18.4 9 Sudeste 12 Sudeste 0 -- -- 90
2019-08-04 23:00:00 19.2 7 Sur 8 Sudeste 0 -- -- 86
2019-08-04 22:00:00 20 4 Sudeste 5 Sudeste 0 -- -- 83
2019-08-04 21:00:00 20.6 4 Nordeste 9 Nordeste 0 -- -- 80
2019-08-04 20:00:00 21 8 Nordeste 14 Nordeste 0 -- -- 79
2019-08-04 19:00:00 21.3 9 Nordeste 15 Nordeste 0 -- -- 78
2019-08-04 18:00:00 22.2 10 Nordeste 13 Norte 0 -- -- 76
2019-08-04 17:00:00 22.4 5 Nordeste 10 Nordeste 0 -- -- 75
2019-08-04 16:00:00 21.9 5 Norte 16 Nordeste 0 -- -- 77
2019-08-04 15:00:00 21.8 11 Norte 20 Nordeste 0 -- -- 79
2019-08-04 14:00:00 21.9 15 Norte 23 Norte 0 -- -- 81
2019-08-04 13:00:00 22.1 15 Norte 23 Nordeste 0 -- -- 80
2019-08-04 12:00:00 23.1 6 Nordeste 13 Nordeste 0 -- -- 78
2019-08-04 11:00:00 22.7 4 Sudoeste 8 Oeste 0 -- -- 79
2019-08-04 10:00:00 20.5 6 Sudoeste 10 Sudoeste 0 -- -- 89
2019-08-04 09:00:00 19.2 5 Sur 9 Sur 0 -- -- 92
2019-08-04 08:00:00 18.6 7 Sur 13 Sudeste 0 -- -- 92
2019-08-04 07:00:00 18.5 6 Sudeste 9 Sudoeste 0 -- -- 93
2019-08-04 06:00:00 18.5 6 Sur 9 Sudoeste 0 -- -- 94
2019-08-04 05:00:00 18.6 7 Sur 8 Sur 0 -- -- 93
2019-08-04 04:00:00 18.8 6 Sur 8 Sudeste 0 -- -- 93
2019-08-04 03:00:00 19.2 5 Sur 9 Sudoeste 0 -- -- 92
2019-08-04 02:00:00 19.4 7 Sudoeste 9 Sudoeste 0 -- -- 91
2019-08-04 01:00:00 19.9 6 Oeste 10 Sudoeste 0 -- -- 90
2019-08-04 00:00:00 20.2 5 Oeste 9 Sudoeste 0 -- -- 89
2019-08-03 23:00:00 20.4 3 Oeste 9 Noroeste 0 -- -- 89
2019-08-03 22:00:00 20.5 4 Noroeste 10 Noroeste -- -- -- 88
2019-08-03 21:00:00 20.7 6 Noroeste 14 Noroeste 0 -- -- 86
2019-08-03 20:00:00 21.4 9 Noroeste 24 Oeste 0 -- -- 79
2019-08-03 19:00:00 21.8 15 Noroeste 22 Norte 0 -- -- 79
2019-08-03 18:00:00 22.3 16 Norte 22 Noroeste 0 -- -- 80
2019-08-03 17:00:00 23.7 17 Norte 23 Norte 0 -- -- 78
2019-08-03 16:00:00 23.9 11 Norte 21 Norte 0 -- -- 76
2019-08-03 15:00:00 23.9 12 Norte 23 Nordeste 0 -- -- 76
2019-08-03 14:00:00 24.3 14 Norte 24 Norte 0 -- -- 75
2019-08-03 13:00:00 24.4 10 Norte 18 Nordeste 0 -- -- 74
2019-08-03 12:00:00 23.9 6 Norte 13 Nordeste 0 -- -- 73
2019-08-03 11:00:00 22.5 4 Nordeste 8 Norte 0 -- -- 77
2019-08-03 10:00:00 20.6 4 Sudoeste 9 Sudoeste 0 -- -- 85
2019-08-03 09:00:00 18.4 6 Sudoeste 10 Sudoeste 0 -- -- 94
2019-08-03 08:00:00 16.6 6 Sudoeste 10 Sur 0 -- -- 98
2019-08-03 07:00:00 16.1 8 Sur 15 Sudeste 0 -- -- 97
2019-08-03 06:00:00 16.5 3 Sur 7 Sur 0 -- -- 97
2019-08-03 05:00:00 16.8 6 Sudeste 10 Sudeste 0 -- -- 96
2019-08-03 04:00:00 17.1 6 Sudeste 10 Sudeste 0 -- -- 95
2019-08-03 03:00:00 17.6 5 Sudeste 8 Este 0 -- -- 94
2019-08-03 02:00:00 18.2 5 Este 10 Este 0 -- -- 92
2019-08-03 01:00:00 18.8 6 Este 10 Este 0 -- -- 89
2019-08-03 00:00:00 19.3 5 Este 10 Este 0 -- -- 88
2019-08-02 23:00:00 19.9 3 Nordeste 17 Este 0 -- -- 85
2019-08-02 22:00:00 20.4 5 Nordeste 13 Nordeste 0 -- -- 83
2019-08-02 21:00:00 21.4 9 Nordeste 21 Este 0 -- -- 80
2019-08-02 20:00:00 22.5 16 Este 22 Este 0 -- -- 76
2019-08-02 19:00:00 23.8 16 Este 27 Nordeste 0 -- -- 73
2019-08-02 18:00:00 24.2 18 Nordeste 30 Nordeste 0 -- -- 72
2019-08-02 17:00:00 24.2 19 Nordeste 31 Nordeste 0 -- -- 73
2019-08-02 16:00:00 24.2 20 Este 27 Nordeste 0 -- -- 74
2019-08-02 15:00:00 24.9 14 Nordeste 26 Nordeste 0 -- -- 71
2019-08-02 14:00:00 24 14 Este 23 Este 0 -- -- 72
2019-08-02 13:00:00 23 13 Este 19 Este 0 -- -- 73
2019-08-02 12:00:00 23.7 12 Este 18 Este 0 -- -- 72
2019-08-02 11:00:00 22.1 8 Nordeste 13 Nordeste 0 -- -- 79
2019-08-02 10:00:00 20.1 5 Este 13 Sudeste 0 -- -- 79
2019-08-02 09:00:00 17.3 10 Sur 13 Sudeste 0 -- -- 89
2019-08-02 08:00:00 15.5 7 Sur 13 Sudeste 0 -- -- 96
2019-08-02 07:00:00 15 8 Sur 12 Sur 0 -- -- 97
2019-08-02 06:00:00 15 4 Sudoeste 13 Sudeste 0 -- -- 97
2019-08-02 05:00:00 15.4 12 Sudeste 16 Sudeste 0 -- -- 96
2019-08-02 04:00:00 15.6 8 Sudeste 11 Sudeste 0 -- -- 96
2019-08-02 03:00:00 15.9 9 Sur 13 Sudeste 0 -- -- 96
2019-08-02 02:00:00 16.2 6 Sudeste 10 Sudeste 0 -- -- 95
2019-08-02 01:00:00 16.5 9 Sudoeste 12 Sudoeste 0 -- -- 93
2019-08-02 00:00:00 17.5 5 Sur 8 Sudeste 0 -- -- 91
2019-08-01 23:00:00 18 5 Sudeste 9 Sudeste 0 -- -- 89
2019-08-01 22:00:00 18.5 5 Sudeste 17 Este 0 -- -- 87
2019-08-01 21:00:00 19.6 9 Este 16 Este 0 -- -- 84
2019-08-01 20:00:00 20 13 Nordeste 18 Nordeste 0 -- -- 81
2019-08-01 19:00:00 20.8 13 Nordeste 19 Nordeste 0 -- -- 77
2019-08-01 18:00:00 21.1 12 Nordeste 19 Nordeste 0 -- -- 79
2019-08-01 17:00:00 20.9 10 Norte 16 Nordeste 0 -- -- 80
2019-08-01 16:00:00 21 9 Nordeste 14 Nordeste 0 -- -- 81
2019-08-01 15:00:00 20.5 10 Nordeste 13 Nordeste 0 -- -- 83
2019-08-01 14:00:00 19.9 9 Nordeste 13 Nordeste 0 -- -- 85
2019-08-01 13:00:00 20 3 Este 5 Este 0 -- -- 84
2019-08-01 12:00:00 19.7 3 Oeste 9 Sudoeste 0.2 -- -- 88
2019-08-01 11:00:00 17.5 6 Sudoeste 11 Sudoeste 0 -- -- 97
2019-08-01 10:00:00 16.4 9 Sudoeste 15 Oeste 0 -- -- 98
2019-08-01 09:00:00 15.8 7 Sudoeste 15 Sudoeste 0.4 -- -- 97
2019-08-01 08:00:00 15.5 8 Sudoeste 14 Sudoeste 0.2 -- -- 97
2019-08-01 07:00:00 15.2 10 Sudoeste 14 Sudoeste 0 -- -- 96
2019-08-01 06:00:00 15.5 7 Sudoeste 15 Oeste 0 -- -- 95
2019-08-01 05:00:00 15.8 8 Sudoeste 12 Sudeste 0 -- -- 92
2019-08-01 04:00:00 15.9 6 Sur 13 Sudoeste 0 -- -- 91
2019-08-01 03:00:00 15.5 12 Sudoeste 16 Sudoeste 0 -- -- 91
2019-08-01 02:00:00 15.6 9 Oeste 13 Sudoeste 0 -- -- 89
2019-08-01 01:00:00 16.3 7 Oeste 9 Sudoeste 0 -- -- 85
2019-08-01 00:00:00 17 7 Sudoeste 8 Oeste 0 -- -- 82
2019-07-31 23:00:00 17.7 3 Este 9 Nordeste 0 -- -- 79
2019-07-31 22:00:00 17.9 9 Este 15 Nordeste 0 -- -- 78
2019-07-31 21:00:00 18.6 7 Nordeste 21 Este 0 -- -- 77
2019-07-31 20:00:00 19.4 14 Este 23 Este 0 -- -- 75
2019-07-31 19:00:00 20 14 Nordeste 26 Nordeste 0 -- -- 73
2019-07-31 18:00:00 20.4 18 Este 32 Nordeste 0 -- -- 73
2019-07-31 17:00:00 20.8 24 Nordeste 35 Este 0 -- -- 71
2019-07-31 16:00:00 21.5 24 Nordeste 34 Nordeste 0 -- -- 66
2019-07-31 15:00:00 22.3 23 Nordeste 32 Este 0 -- -- 64
2019-07-31 14:00:00 22.6 19 Este 28 Este 0 -- -- 59
2019-07-31 13:00:00 22.8 14 Este 27 Este 0 -- -- 55
2019-07-31 12:00:00 21.6 13 Este 22 Este 0 -- -- 59
2019-07-31 11:00:00 21 8 Este 14 Este 0 -- -- 66
2019-07-31 10:00:00 18.7 6 Sudeste 15 Sudeste 0 -- -- 73
2019-07-31 09:00:00 16.9 8 Sudeste 12 Este 0 -- -- 83
2019-07-31 08:00:00 14.7 6 Sur 13 Sudeste 0 -- -- 92
2019-07-31 07:00:00 13.8 7 Sur 12 Sudoeste 0 -- -- 92
2019-07-31 06:00:00 14.4 5 Sur 9 Sur 0 -- -- 91
2019-07-31 05:00:00 14.6 4 Oeste 8 Sudeste 0 -- -- 90
2019-07-31 04:00:00 15.3 5 Sur 10 Sudoeste 0 -- -- 89
2019-07-31 03:00:00 15.6 6 Sudoeste 10 Sudoeste 0 -- -- 86
2019-07-31 02:00:00 16.3 8 Sudoeste 9 Sudoeste 0 -- -- 84
2019-07-31 01:00:00 16.6 5 Sudoeste 11 Sudoeste 0 -- -- 81
2019-07-31 00:00:00 16.9 8 Sudoeste 14 Oeste 0 -- -- 79
2019-07-30 23:00:00 17.2 5 Sudoeste 10 Oeste 0 -- -- 79
2019-07-30 22:00:00 17.7 5 Norte 8 Nordeste 0 -- -- 72
2019-07-30 21:00:00 18 4 Norte 15 Noroeste 0 -- -- 72
2019-07-30 20:00:00 18.2 10 Norte 18 Norte 0 -- -- 74
2019-07-30 19:00:00 19.3 11 Noroeste 21 Noroeste 0 -- -- 72
2019-07-30 18:00:00 19.4 14 Norte 24 Norte 0 -- -- 68
2019-07-30 17:00:00 19.7 14 Norte 26 Oeste 0 -- -- 63
2019-07-30 16:00:00 19.7 16 Noroeste 31 Noroeste 0 -- -- 63
2019-07-30 15:00:00 20.7 23 Norte 37 Norte 0 -- -- 60
2019-07-30 14:00:00 21 18 Noroeste 32 Noroeste 0 -- -- 57
2019-07-30 13:00:00 20.3 15 Norte 32 Noroeste 0 -- -- 68
2019-07-30 12:00:00 19 20 Noroeste 39 Noroeste 0 -- -- 64
2019-07-30 11:00:00 19.6 17 Oeste 31 Oeste 0 -- -- 60
2019-07-30 10:00:00 19.4 11 Oeste 23 Oeste 0 -- -- 59
2019-07-30 09:00:00 18.6 8 Sudoeste 14 Sur 0 -- -- 66
2019-07-30 08:00:00 15.9 10 Sudoeste 14 Sudoeste 0 -- -- 75
2019-07-30 07:00:00 16 9 Sudoeste 13 Sudoeste 0 -- -- 70
2019-07-30 06:00:00 16.7 6 Oeste 26 Oeste 0 -- -- 68
2019-07-30 05:00:00 17.4 11 Oeste 24 Oeste 0 -- -- 69
2019-07-30 04:00:00 17.8 10 Noroeste 27 Noroeste 0 -- -- 73
2019-07-30 03:00:00 17.9 11 Noroeste 23 Oeste 0 -- -- 75
2019-07-30 02:00:00 17.7 10 Oeste 18 Oeste 0 -- -- 78
2019-07-30 01:00:00 18 3 Sudoeste 31 Noroeste 0 -- -- 80
2019-07-30 00:00:00 18.2 17 Noroeste 32 Noroeste 0 -- -- 78
2019-07-29 23:00:00 18.5 17 Noroeste 35 Noroeste 0 -- -- 74
2019-07-29 22:00:00 18.8 14 Noroeste 29 Oeste 0 -- -- 72
2019-07-29 21:00:00 19.1 18 Noroeste 31 Noroeste 0 -- -- 72
2019-07-29 20:00:00 19.4 15 Noroeste 30 Noroeste 0 -- -- 73
2019-07-29 19:00:00 20.1 13 Noroeste 27 Noroeste 0 -- -- 73
2019-07-29 18:00:00 20 15 Noroeste 31 Noroeste 0 -- -- 73
2019-07-29 17:00:00 20.4 13 Noroeste 20 Noroeste 0 -- -- 73
2019-07-29 16:00:00 20.5 8 Noroeste 18 Noroeste 0 -- -- 75
2019-07-29 15:00:00 20.3 13 Noroeste 23 Norte 0 -- -- 74
2019-07-29 14:00:00 20.4 15 Norte 27 Norte 0 -- -- 75
2019-07-29 13:00:00 20.1 19 Noroeste 31 Noroeste 0 -- -- 77
2019-07-29 12:00:00 21.2 16 Norte 22 Norte 0 -- -- 77
2019-07-29 11:00:00 21.9 7 Nordeste 15 Norte 0 -- -- 74
2019-07-29 10:00:00 22.1 4 Oeste 15 Sudoeste 0 -- -- 76
2019-07-29 09:00:00 19.7 12 Sudoeste 16 Oeste 0 -- -- 82
2019-07-29 08:00:00 17 10 Sudoeste 16 Sudoeste 0 -- -- 89
2019-07-29 07:00:00 15.6 11 Sudoeste 16 Sudoeste 0 -- -- 93
2019-07-29 06:00:00 15.6 12 Sudoeste 16 Sudoeste 0 -- -- 94
2019-07-29 05:00:00 15.7 11 Oeste 15 Sudoeste 0 -- -- 94
2019-07-29 04:00:00 15.9 5 Sur 17 Sudeste 0 -- -- 94
2019-07-29 03:00:00 16.1 12 Sur 17 Sudeste 0 -- -- 93
2019-07-29 02:00:00 16.7 8 Sudeste 16 Sudoeste 0 -- -- 91
2019-07-29 01:00:00 16.9 9 Sudoeste 12 Sudoeste 0 -- -- 89
2019-07-29 00:00:00 17.1 5 Sur 13 Sudeste 0 -- -- 86
2019-07-28 23:00:00 18.3 9 Sudeste 14 Este 0 -- -- 80
2019-07-28 22:00:00 18.9 7 Sudeste 19 Este 0 -- -- 75
2019-07-28 21:00:00 20.4 11 Este 22 Este 0 -- -- 73
2019-07-28 20:00:00 21.6 15 Nordeste 23 Nordeste 0 -- -- 70
2019-07-28 19:00:00 22.6 14 Nordeste 26 Nordeste 0 -- -- 67
2019-07-28 18:00:00 22.9 15 Nordeste 23 Nordeste 0 -- -- 66
2019-07-28 17:00:00 23 15 Este 25 Nordeste 0 -- -- 65
2019-07-28 16:00:00 22.6 15 Norte 24 Norte 0 -- -- 67
2019-07-28 15:00:00 21.3 15 Nordeste 24 Norte 0 -- -- 72
2019-07-28 14:00:00 22 14 Norte 25 Nordeste 0 -- -- 71
2019-07-28 13:00:00 21.2 11 Norte 18 Norte 0 -- -- 70
2019-07-28 12:00:00 21.9 4 Sur 14 Sudoeste 0 -- -- 62
2019-07-28 11:00:00 20.3 8 Sudoeste 14 Sudoeste 0 -- -- 72
2019-07-28 10:00:00 16.8 5 Sur 10 Sudeste 0 -- -- 95
2019-07-28 09:00:00 15.7 3 Sudoeste 14 Sudeste 0 -- -- 97
2019-07-28 08:00:00 15.1 6 Sur 10 Sudeste 0 -- -- 97
2019-07-28 07:00:00 14.9 4 Sudoeste 10 Sudoeste 0 -- -- 97
2019-07-28 06:00:00 14.9 6 Sudoeste 14 Sudoeste 0 -- -- 97
2019-07-28 05:00:00 14.8 10 Sur 20 Sudoeste 1.2 -- -- 97
2019-07-28 04:00:00 15 13 Sudoeste 22 Oeste 0.8 -- -- 97
2019-07-28 03:00:00 15.2 14 Sudoeste 20 Sudoeste 0.2 -- -- 96
2019-07-28 02:00:00 15.3 8 Oeste 19 Sudoeste 4.4 -- -- 97
2019-07-28 01:00:00 15.3 12 Sudoeste 18 Sudoeste 0.6 -- -- 97
2019-07-28 00:00:00 15.5 10 Oeste 22 Oeste 0.8 -- -- 97
2019-07-27 23:00:00 15.5 10 Sudoeste 14 Sudoeste 0 -- -- 97
2019-07-26 12:00:00 17 5 Sudoeste 18 Oeste 2.4 -- -- 99
2019-07-26 11:00:00 17.2 10 Sudoeste 18 Sudoeste 1 -- -- 99
2019-07-26 10:00:00 17.3 7 Oeste 12 Oeste 2 -- -- 99
2019-07-26 09:00:00 17 12 Norte 19 Noroeste 1.6 -- -- 99
2019-07-26 08:00:00 17.1 7 Noroeste 15 Noroeste 0.8 -- -- 99
2019-07-26 07:00:00 17.3 2 Noroeste 22 Norte 1 -- -- 99
2019-07-26 06:00:00 17.7 8 Noroeste 10 Noroeste 1.6 -- -- 99
2019-07-26 05:00:00 17.7 8 Noroeste 19 Norte 2.6 -- -- 98
2019-07-26 04:00:00 18.2 13 Noroeste 24 Noroeste 2.4 -- -- 98
2019-07-26 03:00:00 18.6 14 Noroeste 20 Noroeste 1.8 -- -- 97
2019-07-26 02:00:00 19.2 6 Sudoeste 11 Sudoeste 0.4 -- -- 97
2019-07-26 01:00:00 19.3 7 Sudoeste 14 Sudoeste 0.6 -- -- 96
2019-07-26 00:00:00 19.3 6 Oeste 17 Noroeste 1.2 -- -- 95
2019-07-25 23:00:00 19.7 12 Noroeste 30 Noroeste 0.2 -- -- 92
2019-07-25 22:00:00 20.9 18 Noroeste 29 Noroeste 0 -- -- 91
2019-07-25 21:00:00 22.4 13 Noroeste 20 Noroeste 0 -- -- 85
2019-07-25 20:00:00 23.1 12 Noroeste 25 Noroeste 0 -- -- 81
2019-07-25 19:00:00 25.2 12 Norte 20 Noroeste 0 -- -- 66
2019-07-25 18:00:00 25.4 8 Norte 17 Norte 0 -- -- 75
2019-07-25 17:00:00 24.1 11 Norte 22 Norte 0 -- -- 81
2019-07-25 16:00:00 25 13 Norte 22 Noroeste 0 -- -- 82
2019-07-25 15:00:00 25.1 12 Norte 23 Norte 0 -- -- 78
2019-07-25 14:00:00 25.4 17 Nordeste 25 Norte 0 -- -- 77
2019-07-25 13:00:00 26.1 14 Norte 22 Nordeste 0 -- -- 77
2019-07-25 12:00:00 25.4 3 Sudoeste 9 Oeste 0 -- -- 80
2019-07-25 11:00:00 23.2 7 Noroeste 12 Oeste 0 -- -- 88
2019-07-25 10:00:00 22.2 8 Oeste 13 Oeste 0 -- -- 92
2019-07-25 09:00:00 21.5 5 Noroeste 8 Noroeste 0 -- -- 96
2019-07-25 08:00:00 21 3 Sudoeste 7 Norte 0 -- -- 97
2019-07-25 07:00:00 20.8 5 Norte 9 Sudeste 0 -- -- 95
2019-07-25 06:00:00 21 5 Este 9 Este 0 -- -- 95
2019-07-25 05:00:00 21.7 0 Calma 5 Sur 0 -- -- 93
2019-07-25 04:00:00 21.7 0 Calma 8 Sudoeste 0 -- -- 93
2019-07-25 03:00:00 21.7 5 Oeste 15 Oeste 0 -- -- 93
2019-07-25 02:00:00 21.7 9 Oeste 19 Noroeste 0 -- -- 94
2019-07-25 01:00:00 21.9 9 Noroeste 22 Noroeste 0 -- -- 93
2019-07-25 00:00:00 22 12 Noroeste 18 Noroeste 0 -- -- 93
2019-07-24 23:00:00 22.1 13 Noroeste 18 Noroeste 0 -- -- 92
2019-07-24 22:00:00 22.3 13 Noroeste 19 Noroeste 0 -- -- 93
2019-07-24 21:00:00 23.2 10 Norte 17 Noroeste 0 -- -- 89
2019-07-24 20:00:00 25.2 12 Noroeste 17 Noroeste 0 -- -- 82
2019-07-24 19:00:00 26.8 9 Norte 19 Noroeste 0 -- -- 78
2019-07-24 18:00:00 27.1 13 Norte 21 Noroeste 0 -- -- 76
2019-07-24 17:00:00 27.7 15 Norte 27 Norte 0 -- -- 74
2019-07-24 16:00:00 28.1 18 Norte 27 Nordeste 0 -- -- 73
2019-07-24 15:00:00 27.5 12 Nordeste 20 Norte 0 -- -- 74
2019-07-24 14:00:00 26.7 13 Norte 22 Norte 0 -- -- 76
2019-07-24 13:00:00 26.1 14 Norte 22 Norte 0 -- -- 77
2019-07-24 12:00:00 25.9 11 Nordeste 21 Sudeste 0 -- -- 76
2019-07-24 11:00:00 23.4 10 Este 16 Este 0 -- -- 85
2019-07-24 10:00:00 21.8 2 Nordeste 6 Nordeste 0 -- -- 91
2019-07-24 09:00:00 20.9 2 Este 4 Este 0 -- -- 94
2019-07-24 08:00:00 20.5 3 Sudeste 7 Sudeste 0 -- -- 95
2019-07-24 07:00:00 20.4 0 Calma 5 Oeste 0 -- -- 94
2019-07-24 06:00:00 20.5 4 Noroeste 12 Noroeste 0 -- -- 94
2019-07-24 05:00:00 20.5 4 Oeste 20 Oeste 0 -- -- 94
2019-07-24 04:00:00 20.4 15 Oeste 25 Oeste 0 -- -- 93
2019-07-24 03:00:00 20.8 8 Oeste 18 Oeste 0 -- -- 91
2019-07-24 02:00:00 21.2 6 Sudeste 33 Sur 0 -- -- 90
2019-07-24 01:00:00 20.5 14 Sur 28 Sudeste 0 -- -- 94
2019-07-24 00:00:00 20.6 11 Oeste 26 Noroeste 0 -- -- 93
2019-07-23 23:00:00 20.9 5 Sur 31 Sudoeste 0.2 -- -- 92
2019-07-23 22:00:00 20.7 13 Oeste 26 Sudoeste 0 -- -- 95
2019-07-23 21:00:00 21.2 13 Noroeste 28 Oeste 0 -- -- 93
2019-07-23 20:00:00 21.7 16 Oeste 39 Noroeste 0 -- -- 90
2019-07-23 19:00:00 22.6 23 Noroeste 36 Noroeste 0 -- -- 85
2019-07-23 18:00:00 26 15 Norte 24 Noroeste 0 -- -- 77
2019-07-23 17:00:00 24.6 18 Noroeste 25 Norte 0 -- -- 82
2019-07-23 16:00:00 27.2 16 Norte 23 Norte 0 -- -- 74
2019-07-23 15:00:00 27.4 13 Nordeste 21 Norte 0 -- -- 75
2019-07-23 14:00:00 26.3 9 Norte 15 Nordeste 0 -- -- 78
2019-07-23 13:00:00 24.2 9 Norte 26 Noroeste 0 -- -- 86
2019-07-23 12:00:00 23.2 14 Nordeste 21 Norte 0 -- -- 84
2019-07-23 11:00:00 31 5 Norte 28 Sudoeste 0 -- -- 50
2019-07-23 10:00:00 25.7 7 Sur 22 Sur 0 -- -- 58
2019-07-23 09:00:00 21.7 5 Sudoeste 9 Sudoeste 0 -- -- 82
2019-07-23 08:00:00 20.1 3 Noroeste 9 Sudoeste 0 -- -- 90
2019-07-23 07:00:00 19.1 6 Sudoeste 10 Sudoeste 0 -- -- 93
2019-07-23 06:00:00 19.7 7 Sudoeste 10 Sudoeste 0 -- -- 92
2019-07-23 05:00:00 19.9 6 Sudeste 13 Oeste 0 -- -- 91
2019-07-23 04:00:00 21 7 Sudeste 28 Sudeste 0 -- -- 88
2019-07-23 03:00:00 20.9 16 Sudeste 31 Sudeste 0 -- -- 92
2019-07-23 02:00:00 20.2 11 Sudeste 21 Sudeste 0 -- -- 94
2019-07-23 01:00:00 20.3 12 Sur 17 Sur 0 -- -- 95
2019-07-23 00:00:00 20.5 9 Sudeste 11 Este 0 -- -- 95
2019-07-22 23:00:00 20.8 5 Este 26 Sudoeste 1 -- -- 93
2019-07-22 22:00:00 21 6 Nordeste 11 Nordeste 0 -- -- 91
2019-07-22 21:00:00 22 5 Norte 10 Norte 0 -- -- 86
2019-07-22 20:00:00 23.1 9 Norte 13 Norte 0 -- -- 80
2019-07-22 19:00:00 24.5 11 Norte 15 Norte 0 -- -- 77
2019-07-22 18:00:00 24.9 11 Norte 18 Norte 0 -- -- 75
2019-07-22 17:00:00 25.4 13 Norte 19 Norte 0 -- -- 74
2019-07-22 16:00:00 25.7 11 Norte 20 Norte 0 -- -- 74
2019-07-22 15:00:00 25.7 16 Norte 24 Nordeste 0 -- -- 76
2019-07-22 14:00:00 26.5 17 Nordeste 27 Nordeste 0 -- -- 73
2019-07-22 13:00:00 26.5 21 Nordeste 27 Nordeste 0 -- -- 71
2019-07-22 12:00:00 26.2 9 Nordeste 17 Norte 0 -- -- 68
2019-07-22 11:00:00 25.5 5 Nordeste 18 Este 0 -- -- 72
2019-07-22 10:00:00 23.8 10 Este 17 Este 0 -- -- 77
2019-07-22 09:00:00 22.2 10 Este 15 Este 0 -- -- 82
2019-07-22 08:00:00 20.5 3 Sudeste 17 Sudeste 0 -- -- 89
2019-07-22 07:00:00 19.9 10 Este 21 Este 0 -- -- 90
2019-07-22 06:00:00 20 13 Este 17 Este 0 -- -- 89
2019-07-22 05:00:00 20 5 Sudeste 13 Sudeste 0 -- -- 89
2019-07-22 04:00:00 20.1 8 Este 12 Este 0 -- -- 89
2019-07-22 03:00:00 20.3 3 Este 8 Sudeste 0 -- -- 89
2019-07-22 02:00:00 20.4 2 Nordeste 9 Este 0 -- -- 88
2019-07-22 01:00:00 20.3 6 Este 12 Nordeste 0 -- -- 89
2019-07-22 00:00:00 20.4 9 Nordeste 15 Nordeste 0 -- -- 89
2019-07-21 23:00:00 20.7 12 Nordeste 18 Este 0 -- -- 88
2019-07-21 22:00:00 20.9 12 Nordeste 19 Nordeste 0 -- -- 88
2019-07-21 21:00:00 21.9 7 Nordeste 17 Este 0 -- -- 80
2019-07-21 20:00:00 22.4 7 Nordeste 22 Este 0 -- -- 79
2019-07-21 19:00:00 22.3 13 Este 21 Este 0 -- -- 76
2019-07-21 18:00:00 21.7 20 Nordeste 30 Nordeste 0 -- -- 81
2019-07-21 17:00:00 23.2 20 Nordeste 32 Nordeste 0 -- -- 78
2019-07-21 16:00:00 23.5 20 Nordeste 29 Nordeste 0 -- -- 78
2019-07-21 15:00:00 24.3 17 Este 30 Este 0 -- -- 74
2019-07-21 14:00:00 23.6 18 Este 26 Este 0 -- -- 75
2019-07-21 13:00:00 22.9 17 Este 27 Este 0 -- -- 79
2019-07-21 12:00:00 21.6 12 Este 20 Nordeste 0 -- -- 88
2019-07-21 11:00:00 20.8 3 Oeste 5 Oeste 0 -- -- 91
2019-07-21 10:00:00 19.7 0 Calma 6 Oeste 0 -- -- 95
2019-07-21 09:00:00 19.2 4 Oeste 5 Oeste 0 -- -- 95
2019-07-21 08:00:00 18.8 3 Sur 7 Sudeste 0 -- -- 95
2019-07-21 07:00:00 18.6 6 Sudeste 10 Sur 0 -- -- 95
2019-07-21 06:00:00 18.8 3 Sur 10 Sudeste 0 -- -- 95
2019-07-21 05:00:00 18.7 8 Sudeste 10 Sudeste 0 -- -- 95
2019-07-21 04:00:00 19 0 Calma 5 Oeste 0 -- -- 94
2019-07-21 03:00:00 19.2 2 Sudoeste 10 Sudoeste 0 -- -- 94
2019-07-21 02:00:00 19.2 9 Sudoeste 11 Sudoeste -- -- -- 93
2019-07-21 01:00:00 19.1 9 Sudoeste 13 Sudoeste 0 -- -- 93
2019-07-21 00:00:00 19.4 5 Sudoeste 13 Noroeste 0 -- -- 93
2019-07-20 23:00:00 19.5 11 Noroeste 21 Norte 0 -- -- 93
2019-07-20 22:00:00 20.5 9 Nordeste 14 Nordeste 0 -- -- 89
2019-07-20 21:00:00 20.9 10 Norte 13 Norte 0 -- -- 87
2019-07-20 20:00:00 21.4 7 Norte 15 Noroeste 0 -- -- 84
2019-07-20 19:00:00 22 10 Norte 19 Norte 0 -- -- 80
2019-07-20 18:00:00 22.9 10 Norte 17 Norte 0 -- -- 75
2019-07-20 17:00:00 22.5 13 Norte 24 Norte 0 -- -- 76
2019-07-20 16:00:00 23.3 16 Norte 27 Norte 0 -- -- 76
2019-07-20 15:00:00 23.7 13 Nordeste 18 Nordeste 0 -- -- 74
2019-07-20 14:00:00 24.5 13 Nordeste 21 Nordeste 0 -- -- 71
2019-07-20 13:00:00 23.3 9 Norte 17 Norte 0 -- -- 76
2019-07-20 12:00:00 23.8 5 Noroeste 12 Noroeste 0 -- -- 70
2019-07-20 11:00:00 22.5 9 Noroeste 12 Noroeste 0 -- -- 75
2019-07-20 10:00:00 23.3 5 Oeste 10 Oeste 0 -- -- 71
2019-07-20 09:00:00 21.8 5 Sudoeste 8 Sudoeste 0 -- -- 81
2019-07-20 08:00:00 19.2 8 Sudoeste 10 Sudoeste 0 -- -- 90
2019-07-20 07:00:00 17.9 7 Sur 10 Sur 0 -- -- 93
2019-07-20 06:00:00 18 7 Sudoeste 9 Sudoeste 0 -- -- 93
2019-07-20 05:00:00 17.7 4 Sudoeste 10 Sudoeste 0 -- -- 94
2019-07-20 04:00:00 17.6 8 Sur 13 Sudoeste 0 -- -- 93
2019-07-20 03:00:00 17.8 8 Sudoeste 10 Sudoeste 0 -- -- 92
2019-07-20 02:00:00 18.3 4 Sudoeste 9 Sur 0 -- -- 90
2019-07-20 01:00:00 18.8 6 Sur 8 Sudoeste 0 -- -- 88
2019-07-20 00:00:00 19.1 6 Sudoeste 7 Sudoeste 0 -- -- 88
2019-07-19 23:00:00 19.6 3 Noroeste 6 Norte 0 -- -- 86
2019-07-19 22:00:00 19.8 5 Nordeste 12 Nordeste 0 -- -- 84
2019-07-19 21:00:00 21.7 8 Norte 14 Norte 0 -- -- 77
2019-07-19 20:00:00 22.9 10 Norte 17 Norte 0 -- -- 72
2019-07-19 19:00:00 24.3 10 Norte 18 Norte 0 -- -- 65
2019-07-19 18:00:00 24.9 13 Norte 22 Norte 0 -- -- 64
2019-07-19 17:00:00 25.5 14 Norte 25 Norte 0 -- -- 62
2019-07-19 16:00:00 25.8 14 Norte 22 Norte 0 -- -- 64
2019-07-19 15:00:00 25.9 17 Norte 25 Norte 0 -- -- 62
2019-07-19 14:00:00 26.1 17 Nordeste 27 Norte 0 -- -- 61
2019-07-19 13:00:00 26.1 7 Este 15 Este 0 -- -- 59
2019-07-19 12:00:00 24.4 7 Nordeste 13 Nordeste 0 -- -- 65
2019-07-19 11:00:00 22.8 5 Nordeste 12 Nordeste 0 -- -- 71
2019-07-19 10:00:00 20.9 7 Este 11 Este 0 -- -- 75
2019-07-19 09:00:00 17.6 12 Sudeste 21 Sudeste 0 -- -- 81
2019-07-19 08:00:00 15.8 8 Sur 15 Sudeste 0 -- -- 89
2019-07-19 07:00:00 14.3 8 Sudeste 18 Sudeste 0 -- -- 94
2019-07-19 06:00:00 14.7 12 Sudeste 18 Sudeste 0 -- -- 95
2019-07-19 05:00:00 15.3 7 Sudeste 13 Sur 0 -- -- 95
2019-07-19 04:00:00 15.7 9 Sur 12 Sudeste 0 -- -- 94
2019-07-19 03:00:00 16.3 4 Sur 8 Sudeste 0 -- -- 93
2019-07-19 02:00:00 16.5 6 Sur 12 Sudeste 0 -- -- 93
2019-07-19 01:00:00 17.1 7 Sur 11 Sur 0 -- -- 91
2019-07-19 00:00:00 17.7 9 Sudeste 10 Sudeste 0 -- -- 88